createdAt,value
2018-07-08T00:00:54.802Z,0.00
2018-07-08T00:01:54.814Z,0.00
2018-07-08T00:02:54.832Z,0.00
2018-07-08T00:03:54.849Z,0.00
2018-07-08T00:04:54.889Z,0.00
2018-07-08T00:05:54.886Z,0.00
2018-07-08T00:06:54.896Z,0.00
2018-07-08T00:07:54.920Z,0.00
2018-07-08T00:08:54.928Z,0.00
2018-07-08T00:09:54.956Z,0.00
2018-07-08T00:10:54.961Z,0.00
2018-07-08T00:11:54.976Z,0.00
2018-07-08T00:12:54.993Z,0.00
2018-07-08T00:13:55.008Z,0.00
2018-07-08T00:14:55.024Z,0.00
2018-07-08T00:15:55.043Z,0.00
2018-07-08T00:16:55.061Z,0.00
2018-07-08T00:17:55.073Z,0.00
2018-07-08T00:18:55.094Z,0.00
2018-07-08T00:19:55.107Z,0.00
2018-07-08T00:20:55.123Z,0.00
2018-07-08T00:21:55.139Z,0.00
2018-07-08T00:22:55.156Z,0.00
2018-07-08T00:23:55.199Z,0.00
2018-07-08T00:24:55.251Z,0.00
2018-07-08T00:25:55.204Z,0.00
2018-07-08T00:26:56.666Z,0.00
2018-07-08T00:27:55.331Z,0.00
2018-07-08T00:28:55.301Z,0.00
2018-07-08T00:29:55.337Z,0.00
2018-07-08T00:30:55.429Z,0.00
2018-07-08T00:31:55.295Z,0.00
2018-07-08T00:32:55.311Z,0.00
2018-07-08T00:33:55.326Z,0.00
2018-07-08T00:34:55.342Z,0.00
2018-07-08T00:35:55.370Z,0.00
2018-07-08T00:36:55.373Z,0.00
2018-07-08T00:37:55.393Z,0.00
2018-07-08T00:38:55.405Z,0.00
2018-07-08T00:39:55.475Z,0.00
2018-07-08T00:40:55.439Z,0.00
2018-07-08T00:41:55.457Z,0.00
2018-07-08T00:42:55.471Z,0.00
2018-07-08T00:43:55.484Z,0.00
2018-07-08T00:44:55.500Z,0.00
2018-07-08T00:45:55.527Z,0.00
2018-07-08T00:46:55.532Z,0.00
2018-07-08T00:47:55.553Z,0.00
2018-07-08T00:48:55.565Z,0.00
2018-07-08T00:49:55.581Z,0.00
2018-07-08T00:50:55.597Z,0.00
2018-07-08T00:51:55.613Z,0.00
2018-07-08T00:52:55.933Z,0.00
2018-07-08T00:53:55.645Z,0.00
2018-07-08T00:54:55.660Z,0.00
2018-07-08T00:55:55.679Z,0.00
2018-07-08T00:56:55.697Z,0.00
2018-07-08T00:57:55.753Z,0.00
2018-07-08T00:58:56.122Z,0.00
2018-07-08T00:59:55.760Z,0.00
2018-07-08T01:00:55.755Z,0.00
2018-07-08T01:01:55.771Z,0.00
2018-07-08T01:02:55.785Z,0.00
2018-07-08T01:03:55.801Z,0.00
2018-07-08T01:04:55.816Z,0.00
2018-07-08T01:05:55.833Z,0.00
2018-07-08T01:06:55.847Z,0.00
2018-07-08T01:07:55.866Z,0.00
2018-07-08T01:08:55.879Z,0.00
2018-07-08T01:09:55.900Z,0.00
2018-07-08T01:10:55.924Z,0.00
2018-07-08T01:11:55.929Z,0.00
2018-07-08T01:12:55.945Z,0.00
2018-07-08T01:13:55.963Z,0.00
2018-07-08T01:14:55.973Z,0.00
2018-07-08T01:15:56.088Z,0.00
2018-07-08T01:16:56.015Z,0.00
2018-07-08T01:17:56.021Z,0.00
2018-07-08T01:18:56.038Z,0.00
2018-07-08T01:19:56.052Z,0.00
2018-07-08T01:20:56.072Z,0.00
2018-07-08T01:21:56.084Z,0.00
2018-07-08T01:22:56.104Z,0.00
2018-07-08T01:23:56.115Z,0.00
2018-07-08T01:24:56.132Z,0.00
2018-07-08T01:25:56.150Z,0.00
2018-07-08T01:26:56.163Z,0.00
2018-07-08T01:27:56.178Z,0.00
2018-07-08T01:28:56.201Z,0.00
2018-07-08T01:29:56.211Z,0.00
2018-07-08T01:30:56.231Z,0.00
2018-07-08T01:31:56.283Z,0.00
2018-07-08T01:32:57.498Z,0.00
2018-07-08T01:33:56.311Z,0.00
2018-07-08T01:34:56.288Z,0.00
2018-07-08T01:35:56.305Z,0.00
2018-07-08T01:36:56.319Z,0.00
2018-07-08T01:37:56.338Z,0.00
2018-07-08T01:38:56.354Z,0.00
2018-07-08T01:39:56.369Z,0.00
2018-07-08T01:40:56.383Z,0.00
2018-07-08T01:41:56.403Z,0.00
2018-07-08T01:42:56.413Z,0.00
2018-07-08T01:43:56.429Z,0.00
2018-07-08T01:44:56.443Z,0.00
2018-07-08T01:45:56.468Z,0.00
2018-07-08T01:46:56.475Z,0.00
2018-07-08T01:47:56.501Z,0.00
2018-07-08T01:48:56.508Z,0.00
2018-07-08T01:49:56.526Z,0.00
2018-07-08T01:50:56.540Z,0.00
2018-07-08T01:51:56.557Z,0.00
2018-07-08T01:52:56.570Z,0.00
2018-07-08T01:53:56.589Z,0.00
2018-07-08T01:54:56.601Z,0.00
2018-07-08T01:55:56.618Z,0.00
2018-07-08T01:56:56.632Z,0.00
2018-07-08T01:57:56.653Z,0.00
2018-07-08T01:58:56.668Z,0.00
2018-07-08T01:59:56.677Z,0.00
2018-07-08T02:00:56.695Z,0.00
2018-07-08T02:01:56.743Z,0.00
2018-07-08T02:02:56.730Z,0.00
2018-07-08T02:03:56.743Z,0.00
2018-07-08T02:04:56.758Z,0.00
2018-07-08T02:05:56.775Z,0.00
2018-07-08T02:06:56.856Z,0.00
2018-07-08T02:07:56.884Z,0.00
2018-07-08T02:08:57.279Z,0.00
2018-07-08T02:09:56.836Z,0.00
2018-07-08T02:10:56.850Z,0.00
2018-07-08T02:11:56.864Z,0.00
2018-07-08T02:12:56.882Z,0.00
2018-07-08T02:13:56.902Z,0.00
2018-07-08T02:14:56.921Z,0.00
2018-07-08T02:15:56.928Z,0.00
2018-07-08T02:16:56.944Z,0.00
2018-07-08T02:17:56.961Z,0.00
2018-07-08T02:18:56.980Z,0.00
2018-07-08T02:19:56.992Z,0.00
2018-07-08T02:20:57.005Z,0.00
2018-07-08T02:21:57.023Z,4.00
2018-07-08T02:22:57.039Z,4.00
2018-07-08T02:23:57.057Z,4.00
2018-07-08T02:24:57.071Z,4.00
2018-07-08T02:25:57.085Z,4.00
2018-07-08T02:26:57.101Z,4.00
2018-07-08T02:27:57.117Z,4.00
2018-07-08T02:28:57.133Z,4.00
2018-07-08T02:29:57.153Z,4.00
2018-07-08T02:30:57.166Z,4.00
2018-07-08T02:31:57.182Z,4.00
2018-07-08T02:32:57.195Z,4.00
2018-07-08T02:33:57.218Z,4.00
2018-07-08T02:34:57.228Z,4.00
2018-07-08T02:35:57.252Z,4.00
2018-07-08T02:36:57.263Z,4.00
2018-07-08T02:37:57.276Z,4.00
2018-07-08T02:38:57.339Z,4.00
2018-07-08T02:39:57.325Z,4.00
2018-07-08T02:40:57.332Z,0.00
2018-07-08T02:41:57.334Z,0.00
2018-07-08T02:42:57.349Z,4.00
2018-07-08T02:43:57.366Z,4.00
2018-07-08T02:44:57.382Z,4.00
2018-07-08T02:45:57.397Z,4.00
2018-07-08T02:46:57.414Z,4.00
2018-07-08T02:47:57.432Z,4.00
2018-07-08T02:48:57.444Z,4.00
2018-07-08T02:49:57.464Z,4.00
2018-07-08T02:50:57.472Z,8.00
2018-07-08T02:51:57.489Z,4.00
2018-07-08T02:52:57.511Z,8.00
2018-07-08T02:53:57.521Z,8.00
2018-07-08T02:54:57.537Z,8.00
2018-07-08T02:55:57.553Z,4.00
2018-07-08T02:56:57.568Z,8.00
2018-07-08T02:57:57.582Z,8.00
2018-07-08T02:58:57.597Z,8.00
2018-07-08T02:59:57.629Z,8.00
2018-07-08T03:00:57.630Z,12.00
2018-07-08T03:01:57.642Z,12.00
2018-07-08T03:02:57.659Z,12.00
2018-07-08T03:03:57.676Z,16.00
2018-07-08T03:04:57.689Z,16.00
2018-07-08T03:05:57.706Z,20.00
2018-07-08T03:06:57.723Z,20.00
2018-07-08T03:07:57.737Z,20.00
2018-07-08T03:08:57.752Z,24.00
2018-07-08T03:09:57.765Z,28.00
2018-07-08T03:10:57.786Z,32.00
2018-07-08T03:11:57.798Z,32.00
2018-07-08T03:12:57.821Z,36.00
2018-07-08T03:13:57.846Z,40.00
2018-07-08T03:14:57.844Z,44.00
2018-07-08T03:15:57.866Z,48.00
2018-07-08T03:16:57.879Z,52.00
2018-07-08T03:17:57.889Z,56.00
2018-07-08T03:18:57.912Z,60.00
2018-07-08T03:19:57.920Z,60.00
2018-07-08T03:20:57.936Z,68.00
2018-07-08T03:21:57.955Z,72.00
2018-07-08T03:22:57.968Z,80.00
2018-07-08T03:23:57.983Z,88.00
2018-07-08T03:24:57.993Z,88.00
2018-07-08T03:25:58.012Z,96.00
2018-07-08T03:26:58.021Z,104.00
2018-07-08T03:27:58.034Z,112.00
2018-07-08T03:28:58.051Z,116.00
2018-07-08T03:29:58.070Z,124.00
2018-07-08T03:30:58.087Z,132.00
2018-07-08T03:31:58.100Z,140.00
2018-07-08T03:32:58.112Z,148.00
2018-07-08T03:33:58.129Z,156.00
2018-07-08T03:34:58.143Z,164.00
2018-07-08T03:35:58.159Z,168.00
2018-07-08T03:36:58.177Z,180.00
2018-07-08T03:37:58.189Z,188.00
2018-07-08T03:38:58.203Z,196.00
2018-07-08T03:39:58.225Z,204.00
2018-07-08T03:40:58.234Z,212.00
2018-07-08T03:41:58.252Z,220.00
2018-07-08T03:42:58.318Z,232.00
2018-07-08T03:43:58.280Z,240.00
2018-07-08T03:44:58.300Z,248.00
2018-07-08T03:45:58.313Z,256.00
2018-07-08T03:46:58.326Z,268.00
2018-07-08T03:47:58.340Z,276.00
2018-07-08T03:48:58.357Z,288.00
2018-07-08T03:49:58.373Z,296.00
2018-07-08T03:50:58.388Z,308.00
2018-07-08T03:51:58.406Z,316.00
2018-07-08T03:52:58.419Z,328.00
2018-07-08T03:53:58.435Z,336.00
2018-07-08T03:54:58.450Z,348.00
2018-07-08T03:55:58.465Z,360.00
2018-07-08T03:56:58.480Z,372.00
2018-07-08T03:57:58.495Z,384.00
2018-07-08T03:58:58.511Z,392.00
2018-07-08T03:59:58.525Z,404.00
2018-07-08T04:00:58.541Z,416.00
2018-07-08T04:01:58.557Z,428.00
2018-07-08T04:02:58.573Z,432.00
2018-07-08T04:03:58.591Z,448.00
2018-07-08T04:04:58.622Z,460.00
2018-07-08T04:05:58.622Z,472.00
2018-07-08T04:06:58.633Z,480.00
2018-07-08T04:07:58.649Z,496.00
2018-07-08T04:08:58.663Z,504.00
2018-07-08T04:09:58.683Z,520.00
2018-07-08T04:10:58.695Z,532.00
2018-07-08T04:11:58.715Z,552.00
2018-07-08T04:12:58.732Z,560.00
2018-07-08T04:13:58.740Z,576.00
2018-07-08T04:14:58.756Z,592.00
2018-07-08T04:15:58.814Z,604.00
2018-07-08T04:16:58.787Z,620.00
2018-07-08T04:17:58.812Z,628.00
2018-07-08T04:18:58.817Z,644.00
2018-07-08T04:19:58.832Z,656.00
2018-07-08T04:20:58.901Z,668.00
2018-07-08T04:21:58.866Z,680.00
2018-07-08T04:22:58.879Z,696.00
2018-07-08T04:23:59.207Z,708.00
2018-07-08T04:24:58.910Z,720.00
2018-07-08T04:25:58.976Z,736.00
2018-07-08T04:26:58.941Z,752.00
2018-07-08T04:27:58.970Z,764.00
2018-07-08T04:28:58.972Z,780.00
2018-07-08T04:29:58.987Z,796.00
2018-07-08T04:30:59.000Z,816.00
2018-07-08T04:31:59.016Z,828.00
2018-07-08T04:32:59.031Z,852.00
2018-07-08T04:33:59.050Z,968.00
2018-07-08T04:34:59.062Z,1032.00
2018-07-08T04:35:59.091Z,1080.00
2018-07-08T04:36:59.093Z,1476.00
2018-07-08T04:37:59.120Z,2076.00
2018-07-08T04:38:59.124Z,1472.00
2018-07-08T04:39:59.140Z,1012.00
2018-07-08T04:40:59.154Z,1052.00
2018-07-08T04:41:59.174Z,1060.00
2018-07-08T04:42:59.185Z,1120.00
2018-07-08T04:43:59.202Z,3204.00
2018-07-08T04:44:59.232Z,3224.00
2018-07-08T04:45:59.232Z,1652.00
2018-07-08T04:46:59.251Z,1096.00
2018-07-08T04:47:59.263Z,1116.00
2018-07-08T04:48:59.318Z,1136.00
2018-07-08T04:49:59.324Z,1156.00
2018-07-08T04:50:59.348Z,1180.00
2018-07-08T04:51:59.325Z,1196.00
2018-07-08T04:52:59.341Z,1396.00
2018-07-08T04:53:59.356Z,1636.00
2018-07-08T04:54:59.370Z,1460.00
2018-07-08T04:55:59.388Z,1212.00
2018-07-08T04:56:59.401Z,1216.00
2018-07-08T04:57:59.418Z,1224.00
2018-07-08T04:58:59.433Z,1240.00
2018-07-08T04:59:59.448Z,1248.00
2018-07-08T05:00:59.484Z,1268.00
2018-07-08T05:01:59.481Z,1292.00
2018-07-08T05:02:59.495Z,1480.00
2018-07-08T05:03:59.521Z,1676.00
2018-07-08T05:04:59.528Z,1792.00
2018-07-08T05:05:59.548Z,1704.00
2018-07-08T05:06:59.576Z,1384.00
2018-07-08T05:07:59.571Z,1364.00
2018-07-08T05:08:59.589Z,1368.00
2018-07-08T05:09:59.604Z,1380.00
2018-07-08T05:10:59.618Z,1400.00
2018-07-08T05:11:59.634Z,1412.00
2018-07-08T05:12:59.652Z,1424.00
2018-07-08T05:13:59.666Z,1436.00
2018-07-08T05:14:59.692Z,1452.00
2018-07-08T05:15:59.696Z,1460.00
2018-07-08T05:16:59.722Z,1468.00
2018-07-08T05:17:59.735Z,1480.00
2018-07-08T05:18:59.942Z,1492.00
2018-07-08T05:19:59.759Z,1500.00
2018-07-08T05:20:59.801Z,1512.00
2018-07-08T05:21:59.835Z,1520.00
2018-07-08T05:22:59.804Z,1536.00
2018-07-08T05:23:59.821Z,1544.00
2018-07-08T05:24:59.843Z,1552.00
2018-07-08T05:25:59.855Z,1560.00
2018-07-08T05:26:59.866Z,1572.00
2018-07-08T05:27:59.882Z,1576.00
2018-07-08T05:28:59.901Z,1564.00
2018-07-08T05:29:59.915Z,1540.00
2018-07-08T05:30:59.926Z,1572.00
2018-07-08T05:31:59.946Z,1612.00
2018-07-08T05:32:59.960Z,1632.00
2018-07-08T05:33:59.975Z,1644.00
2018-07-08T05:34:59.991Z,1656.00
2018-07-08T05:36:00.010Z,1672.00
2018-07-08T05:37:00.033Z,1684.00
2018-07-08T05:38:00.039Z,1700.00
2018-07-08T05:39:00.056Z,1708.00
2018-07-08T05:40:00.073Z,1720.00
2018-07-08T05:41:00.086Z,1732.00
2018-07-08T05:42:00.099Z,1740.00
2018-07-08T05:43:00.118Z,1752.00
2018-07-08T05:44:00.129Z,1776.00
2018-07-08T05:45:00.147Z,1780.00
2018-07-08T05:46:00.162Z,1800.00
2018-07-08T05:47:00.177Z,1800.00
2018-07-08T05:48:00.194Z,1828.00
2018-07-08T05:49:00.208Z,1836.00
2018-07-08T05:50:00.224Z,1844.00
2018-07-08T05:51:00.237Z,1856.00
2018-07-08T05:52:00.255Z,1876.00
2018-07-08T05:53:00.270Z,1876.00
2018-07-08T05:54:00.437Z,1880.00
2018-07-08T05:55:00.467Z,1888.00
2018-07-08T05:56:00.360Z,1892.00
2018-07-08T05:57:00.383Z,1900.00
2018-07-08T05:58:00.631Z,1904.00
2018-07-08T05:59:00.363Z,1904.00
2018-07-08T06:00:00.378Z,1912.00
2018-07-08T06:01:00.395Z,1928.00
2018-07-08T06:02:00.410Z,1936.00
2018-07-08T06:03:00.444Z,1940.00
2018-07-08T06:04:00.441Z,1952.00
2018-07-08T06:05:00.457Z,1964.00
2018-07-08T06:06:00.473Z,1964.00
2018-07-08T06:07:00.486Z,1972.00
2018-07-08T06:08:00.501Z,2004.00
2018-07-08T06:09:00.525Z,2024.00
2018-07-08T06:10:00.535Z,2008.00
2018-07-08T06:11:00.553Z,2008.00
2018-07-08T06:12:00.569Z,2036.00
2018-07-08T06:13:00.586Z,2064.00
2018-07-08T06:14:00.599Z,2084.00
2018-07-08T06:15:00.612Z,2100.00
2018-07-08T06:16:00.627Z,2144.00
2018-07-08T06:17:00.643Z,2120.00
2018-07-08T06:18:00.672Z,2116.00
2018-07-08T06:19:00.673Z,2124.00
2018-07-08T06:20:00.692Z,2160.00
2018-07-08T06:21:00.705Z,2132.00
2018-07-08T06:22:00.728Z,2124.00
2018-07-08T06:23:00.736Z,2120.00
2018-07-08T06:24:00.753Z,2180.00
2018-07-08T06:25:00.772Z,2208.00
2018-07-08T06:26:00.851Z,2196.00
2018-07-08T06:27:01.002Z,2204.00
2018-07-08T06:28:00.823Z,2212.00
2018-07-08T06:29:00.830Z,2240.00
2018-07-08T06:30:00.961Z,1612.00
2018-07-08T06:31:00.948Z,1240.00
2018-07-08T06:32:00.878Z,2332.00
2018-07-08T06:33:00.899Z,2320.00
2018-07-08T06:34:00.910Z,2392.00
2018-07-08T06:35:00.964Z,2336.00
2018-07-08T06:36:00.942Z,2376.00
2018-07-08T06:37:00.959Z,2404.00
2018-07-08T06:38:00.986Z,2436.00
2018-07-08T06:39:00.988Z,2436.00
2018-07-08T06:40:01.034Z,2440.00
2018-07-08T06:41:01.021Z,2544.00
2018-07-08T06:42:01.035Z,2164.00
2018-07-08T06:43:01.052Z,2568.00
2018-07-08T06:44:01.067Z,2468.00
2018-07-08T06:45:01.085Z,2536.00
2018-07-08T06:46:01.098Z,2468.00
2018-07-08T06:47:01.113Z,2292.00
2018-07-08T06:48:01.131Z,1984.00
2018-07-08T06:49:01.145Z,1784.00
2018-07-08T06:50:01.163Z,2728.00
2018-07-08T06:51:01.183Z,2676.00
2018-07-08T06:52:01.210Z,2656.00
2018-07-08T06:53:01.210Z,2636.00
2018-07-08T06:54:01.224Z,2616.00
2018-07-08T06:55:01.244Z,2576.00
2018-07-08T06:56:01.253Z,1872.00
2018-07-08T06:57:01.270Z,2572.00
2018-07-08T06:58:01.295Z,2608.00
2018-07-08T06:59:01.302Z,2672.00
2018-07-08T07:00:01.316Z,2644.00
2018-07-08T07:01:01.349Z,2652.00
2018-07-08T07:02:01.350Z,2636.00
2018-07-08T07:03:01.377Z,2596.00
2018-07-08T07:05:01.411Z,2692.00
2018-07-08T07:06:01.463Z,2584.00
2018-07-08T07:07:01.531Z,2164.00
2018-07-08T07:08:01.992Z,1436.00
2018-07-08T07:09:01.469Z,2688.00
2018-07-08T07:10:01.475Z,2696.00
2018-07-08T07:11:01.710Z,2724.00
2018-07-08T07:12:01.520Z,2708.00
2018-07-08T07:13:01.525Z,2724.00
2018-07-08T07:14:01.547Z,2684.00
2018-07-08T07:15:01.554Z,2700.00
2018-07-08T07:16:01.622Z,2768.00
2018-07-08T07:17:01.586Z,2796.00
2018-07-08T07:18:01.602Z,2800.00
2018-07-08T07:19:01.621Z,2768.00
2018-07-08T07:20:01.633Z,2780.00
2018-07-08T07:21:01.654Z,2792.00
2018-07-08T07:22:01.670Z,2860.00
2018-07-08T07:23:01.738Z,2880.00
2018-07-08T07:24:01.706Z,2868.00
2018-07-08T07:25:01.713Z,2960.00
2018-07-08T07:26:01.732Z,2964.00
2018-07-08T07:27:01.751Z,2924.00
2018-07-08T07:28:01.764Z,2916.00
2018-07-08T07:29:01.783Z,2888.00
2018-07-08T07:30:01.794Z,2876.00
2018-07-08T07:31:01.809Z,2876.00
2018-07-08T07:32:01.831Z,2836.00
2018-07-08T07:33:01.847Z,2756.00
2018-07-08T07:34:01.855Z,2008.00
2018-07-08T07:35:01.871Z,2692.00
2018-07-08T07:36:01.899Z,2752.00
2018-07-08T07:37:01.925Z,2944.00
2018-07-08T07:38:01.994Z,1744.00
2018-07-08T07:39:02.259Z,2852.00
2018-07-08T07:40:02.081Z,2892.00
2018-07-08T07:41:02.323Z,2456.00
2018-07-08T07:42:01.982Z,2856.00
2018-07-08T07:43:01.999Z,2868.00
2018-07-08T07:44:02.016Z,2888.00
2018-07-08T07:45:02.093Z,2904.00
2018-07-08T07:46:02.047Z,2116.00
2018-07-08T07:47:02.064Z,2728.00
2018-07-08T07:48:02.077Z,2924.00
2018-07-08T07:49:02.173Z,2920.00
2018-07-08T07:50:02.111Z,2924.00
2018-07-08T07:51:02.130Z,2924.00
2018-07-08T07:52:02.141Z,2936.00
2018-07-08T07:53:02.161Z,2956.00
2018-07-08T07:54:02.177Z,2944.00
2018-07-08T07:55:02.190Z,2940.00
2018-07-08T07:56:02.208Z,2928.00
2018-07-08T07:57:02.222Z,2936.00
2018-07-08T07:58:02.238Z,2980.00
2018-07-08T07:59:02.318Z,2956.00
2018-07-08T08:00:02.269Z,2948.00
2018-07-08T08:01:02.285Z,2956.00
2018-07-08T08:02:02.300Z,2976.00
2018-07-08T08:03:02.324Z,3000.00
2018-07-08T08:05:02.348Z,3000.00
2018-07-08T08:07:02.381Z,3024.00
2018-07-08T08:08:02.551Z,3044.00
2018-07-08T08:09:02.412Z,3048.00
2018-07-08T08:10:02.435Z,3048.00
2018-07-08T08:11:02.454Z,3052.00
2018-07-08T08:12:02.461Z,3044.00
2018-07-08T08:13:02.497Z,3052.00
2018-07-08T08:14:02.563Z,3052.00
2018-07-08T08:15:02.743Z,3068.00
2018-07-08T08:16:02.522Z,3084.00
2018-07-08T08:17:02.548Z,3080.00
2018-07-08T08:18:02.560Z,3092.00
2018-07-08T08:19:02.582Z,3096.00
2018-07-08T08:20:02.589Z,3132.00
2018-07-08T08:21:02.640Z,3148.00
2018-07-08T08:22:02.623Z,3420.00
2018-07-08T08:23:02.637Z,3136.00
2018-07-08T08:24:02.656Z,3156.00
2018-07-08T08:25:02.666Z,3156.00
2018-07-08T08:26:02.684Z,3196.00
2018-07-08T08:27:02.701Z,3200.00
2018-07-08T08:28:02.715Z,3204.00
2018-07-08T08:29:02.889Z,3224.00
2018-07-08T08:30:02.755Z,3224.00
2018-07-08T08:31:02.790Z,3244.00
2018-07-08T08:32:02.830Z,3256.00
2018-07-08T08:33:02.803Z,3260.00
2018-07-08T08:34:02.814Z,3276.00
2018-07-08T08:35:02.834Z,3292.00
2018-07-08T08:36:02.845Z,3312.00
2018-07-08T08:37:02.864Z,3312.00
2018-07-08T08:38:02.880Z,3304.00
2018-07-08T08:39:02.892Z,3328.00
2018-07-08T08:40:02.961Z,3324.00
2018-07-08T08:41:03.054Z,3332.00
2018-07-08T08:42:03.394Z,3352.00
2018-07-08T08:43:02.956Z,3356.00
2018-07-08T08:44:02.976Z,3368.00
2018-07-08T08:45:02.995Z,3368.00
2018-07-08T08:46:03.066Z,3376.00
2018-07-08T08:47:03.105Z,3408.00
2018-07-08T08:48:03.039Z,3416.00
2018-07-08T08:49:03.053Z,3416.00
2018-07-08T08:50:03.066Z,3420.00
2018-07-08T08:51:03.104Z,3436.00
2018-07-08T08:52:03.099Z,3432.00
2018-07-08T08:53:03.126Z,3424.00
2018-07-08T08:54:03.133Z,3436.00
2018-07-08T08:55:03.149Z,3424.00
2018-07-08T08:56:03.165Z,3428.00
2018-07-08T08:57:03.183Z,3432.00
2018-07-08T08:58:03.201Z,3444.00
2018-07-08T08:59:03.422Z,3448.00
2018-07-08T09:00:03.245Z,3460.00
2018-07-08T09:01:03.281Z,3456.00
2018-07-08T09:02:03.265Z,3484.00
2018-07-08T09:03:03.281Z,3492.00
2018-07-08T09:04:03.297Z,3492.00
2018-07-08T09:05:03.312Z,3512.00
2018-07-08T09:06:03.334Z,3524.00
2018-07-08T09:07:03.348Z,3516.00
2018-07-08T09:08:03.361Z,3532.00
2018-07-08T09:09:03.374Z,3532.00
2018-07-08T09:10:03.390Z,3532.00
2018-07-08T09:11:03.450Z,3568.00
2018-07-08T09:12:03.469Z,3572.00
2018-07-08T09:13:03.441Z,3572.00
2018-07-08T09:14:03.561Z,3580.00
2018-07-08T09:15:03.578Z,3588.00
2018-07-08T09:16:03.500Z,3592.00
2018-07-08T09:17:03.509Z,3604.00
2018-07-08T09:18:03.562Z,3608.00
2018-07-08T09:19:03.538Z,3612.00
2018-07-08T09:20:03.555Z,3640.00
2018-07-08T09:21:03.569Z,3644.00
2018-07-08T09:22:03.590Z,3640.00
2018-07-08T09:23:03.610Z,3640.00
2018-07-08T09:24:03.677Z,3648.00
2018-07-08T09:25:03.640Z,3636.00
2018-07-08T09:26:03.655Z,3648.00
2018-07-08T09:27:03.675Z,3652.00
2018-07-08T09:28:03.687Z,3672.00
2018-07-08T09:29:03.700Z,3680.00
2018-07-08T09:30:03.726Z,3692.00
2018-07-08T09:31:03.737Z,3688.00
2018-07-08T09:32:03.764Z,3692.00
2018-07-08T09:33:03.774Z,3692.00
2018-07-08T09:34:03.784Z,3704.00
2018-07-08T09:35:03.798Z,3704.00
2018-07-08T09:36:03.816Z,3708.00
2018-07-08T09:37:03.832Z,3724.00
2018-07-08T09:38:03.859Z,3736.00
2018-07-08T09:39:03.905Z,3736.00
2018-07-08T09:40:03.884Z,3748.00
2018-07-08T09:41:03.904Z,3748.00
2018-07-08T09:42:03.974Z,3756.00
2018-07-08T09:43:03.982Z,3756.00
2018-07-08T09:44:04.051Z,3756.00
2018-07-08T09:45:03.991Z,3760.00
2018-07-08T09:46:04.168Z,3756.00
2018-07-08T09:48:04.208Z,3776.00
2018-07-08T09:49:04.031Z,3784.00
2018-07-08T09:50:04.086Z,3780.00
2018-07-08T09:51:04.135Z,3792.00
2018-07-08T09:52:04.092Z,3796.00
2018-07-08T09:53:04.093Z,3784.00
2018-07-08T09:54:04.125Z,3812.00
2018-07-08T09:55:04.137Z,3780.00
2018-07-08T09:56:04.141Z,3772.00
2018-07-08T09:57:04.157Z,3788.00
2018-07-08T09:58:04.211Z,3796.00
2018-07-08T09:59:04.216Z,3792.00
2018-07-08T10:00:04.210Z,3808.00
2018-07-08T10:01:04.233Z,3808.00
2018-07-08T10:02:04.242Z,3792.00
2018-07-08T10:03:04.259Z,3804.00
2018-07-08T10:04:04.278Z,3800.00
2018-07-08T10:05:04.293Z,3796.00
2018-07-08T10:06:04.334Z,3788.00
2018-07-08T10:07:04.327Z,3752.00
2018-07-08T10:08:04.360Z,3800.00
2018-07-08T10:09:04.360Z,3800.00
2018-07-08T10:10:04.375Z,3792.00
2018-07-08T10:11:04.395Z,3792.00
2018-07-08T10:12:04.414Z,3756.00
2018-07-08T10:13:04.426Z,3784.00
2018-07-08T10:14:04.449Z,3792.00
2018-07-08T10:15:04.462Z,3792.00
2018-07-08T10:16:04.473Z,3784.00
2018-07-08T10:17:04.597Z,3776.00
2018-07-08T10:18:04.550Z,3792.00
2018-07-08T10:19:04.527Z,3764.00
2018-07-08T10:20:04.588Z,3768.00
2018-07-08T10:21:04.561Z,3764.00
2018-07-08T10:22:04.576Z,3764.00
2018-07-08T10:23:04.731Z,3756.00
2018-07-08T10:25:04.720Z,3772.00
2018-07-08T10:26:04.643Z,3752.00
2018-07-08T10:27:04.685Z,3752.00
2018-07-08T10:28:04.677Z,3744.00
2018-07-08T10:29:04.774Z,3756.00
2018-07-08T10:30:04.746Z,3784.00
2018-07-08T10:31:04.745Z,3796.00
2018-07-08T10:32:04.868Z,3768.00
2018-07-08T10:33:04.767Z,3760.00
2018-07-08T10:34:04.792Z,3768.00
2018-07-08T10:35:04.790Z,3712.00
2018-07-08T10:36:04.812Z,3760.00
2018-07-08T10:37:04.827Z,3760.00
2018-07-08T10:38:04.869Z,3776.00
2018-07-08T10:39:04.861Z,3768.00
2018-07-08T10:40:04.876Z,3792.00
2018-07-08T10:41:04.892Z,3768.00
2018-07-08T10:42:04.909Z,3776.00
2018-07-08T10:43:04.920Z,3772.00
2018-07-08T10:44:04.936Z,3768.00
2018-07-08T10:45:04.971Z,3732.00
2018-07-08T10:46:04.974Z,3772.00
2018-07-08T10:47:04.988Z,3728.00
2018-07-08T10:48:05.007Z,3756.00
2018-07-08T10:49:05.025Z,3752.00
2018-07-08T10:50:05.090Z,3776.00
2018-07-08T10:51:05.055Z,3780.00
2018-07-08T10:52:05.087Z,3756.00
2018-07-08T10:53:05.218Z,3796.00
2018-07-08T10:54:05.113Z,3792.00
2018-07-08T10:55:05.122Z,3808.00
2018-07-08T10:56:05.144Z,3808.00
2018-07-08T10:57:05.215Z,3820.00
2018-07-08T10:58:05.575Z,3820.00
2018-07-08T10:59:05.251Z,3820.00
2018-07-08T11:00:05.206Z,3804.00
2018-07-08T11:01:05.225Z,3828.00
2018-07-08T11:02:05.242Z,3832.00
2018-07-08T11:03:05.260Z,3824.00
2018-07-08T11:04:05.274Z,3836.00
2018-07-08T11:05:05.502Z,3852.00
2018-07-08T11:06:05.407Z,3864.00
2018-07-08T11:07:05.325Z,3876.00
2018-07-08T11:08:05.396Z,3872.00
2018-07-08T11:09:05.570Z,3872.00
2018-07-08T11:10:05.399Z,3888.00
2018-07-08T11:11:05.393Z,3884.00
2018-07-08T11:12:05.415Z,3880.00
2018-07-08T11:13:05.432Z,3912.00
2018-07-08T11:14:05.444Z,3904.00
2018-07-08T11:15:05.465Z,3924.00
2018-07-08T11:16:05.787Z,3880.00
2018-07-08T11:17:05.496Z,3944.00
2018-07-08T11:18:05.513Z,3956.00
2018-07-08T11:19:05.534Z,3940.00
2018-07-08T11:20:05.547Z,3968.00
2018-07-08T11:21:05.566Z,3984.00
2018-07-08T11:23:05.609Z,3980.00
2018-07-08T11:24:05.619Z,3992.00
2018-07-08T11:25:05.635Z,3992.00
2018-07-08T11:26:05.653Z,4004.00
2018-07-08T11:27:06.174Z,4008.00
2018-07-08T11:28:05.688Z,4024.00
2018-07-08T11:29:05.704Z,4036.00
2018-07-08T11:30:05.782Z,4032.00
2018-07-08T11:31:05.812Z,4060.00
2018-07-08T11:32:05.815Z,4048.00
2018-07-08T11:33:05.800Z,4064.00
2018-07-08T11:34:05.791Z,4060.00
2018-07-08T11:35:05.807Z,4056.00
2018-07-08T11:36:05.826Z,4044.00
2018-07-08T11:37:05.845Z,4076.00
2018-07-08T11:38:05.858Z,4092.00
2018-07-08T11:39:05.877Z,4120.00
2018-07-08T11:40:05.893Z,4120.00
2018-07-08T11:41:05.950Z,4136.00
2018-07-08T11:42:05.932Z,4144.00
2018-07-08T11:43:05.945Z,4160.00
2018-07-08T11:44:05.967Z,4196.00
2018-07-08T11:45:05.982Z,4216.00
2018-07-08T11:46:06.005Z,4236.00
2018-07-08T11:47:06.016Z,4244.00
2018-07-08T11:48:06.035Z,4248.00
2018-07-08T11:49:06.052Z,4260.00
2018-07-08T11:50:06.071Z,4280.00
2018-07-08T11:51:06.087Z,4192.00
2018-07-08T11:52:06.116Z,4300.00
2018-07-08T11:53:06.325Z,4312.00
2018-07-08T11:54:06.139Z,4352.00
2018-07-08T11:55:06.158Z,4340.00
2018-07-08T11:56:06.187Z,4356.00
2018-07-08T11:57:06.199Z,4384.00
2018-07-08T11:58:06.215Z,4392.00
2018-07-08T11:59:06.229Z,4412.00
2018-07-08T12:00:06.250Z,4404.00
2018-07-08T12:01:06.275Z,4432.00
2018-07-08T12:02:06.286Z,4456.00
2018-07-08T12:03:06.300Z,4460.00
2018-07-08T12:04:06.379Z,4468.00
2018-07-08T12:05:06.432Z,4484.00
2018-07-08T12:06:06.396Z,4496.00
2018-07-08T12:07:06.412Z,4552.00
2018-07-08T12:08:06.387Z,4536.00
2018-07-08T12:09:06.415Z,4548.00
2018-07-08T12:10:06.424Z,4584.00
2018-07-08T12:11:06.442Z,4604.00
2018-07-08T12:12:06.458Z,4656.00
2018-07-08T12:13:06.479Z,4616.00
2018-07-08T12:14:06.506Z,4624.00
2018-07-08T12:15:06.613Z,4660.00
2018-07-08T12:16:06.629Z,4712.00
2018-07-08T12:18:06.916Z,4756.00
2018-07-08T12:19:07.061Z,4756.00
2018-07-08T12:20:06.608Z,4756.00
2018-07-08T12:21:06.674Z,4832.00
2018-07-08T12:22:06.645Z,4860.00
2018-07-08T12:23:06.656Z,4876.00
2018-07-08T12:24:06.690Z,4976.00
2018-07-08T12:25:06.698Z,5168.00
2018-07-08T12:26:06.716Z,5448.00
2018-07-08T12:27:06.812Z,5720.00
2018-07-08T12:28:06.754Z,5804.00
2018-07-08T12:29:06.769Z,5500.00
2018-07-08T12:30:07.600Z,5112.00
2018-07-08T12:31:06.870Z,5048.00
2018-07-08T12:32:06.823Z,5036.00
2018-07-08T12:33:06.840Z,5072.00